sensor_id;sensor_type;location;lat;lon;timestamp;pressure;altitude;pressure_sealevel;temperature;humidity
61676;BME280;47574;52.090;5.244;2023-06-14T00:01:18;101492.0;;;26.39;29.54
61676;BME280;47574;52.090;5.244;2023-06-14T00:02:55;101498.0;;;26.27;29.75
61676;BME280;47574;52.090;5.244;2023-06-14T00:04:31;101495.0;;;26.21;29.81
61676;BME280;47574;52.090;5.244;2023-06-14T00:07:43;101497.0;;;26.28;29.66
61676;BME280;47574;52.090;5.244;2023-06-14T00:09:19;101499.0;;;26.22;29.74
61676;BME280;47574;52.090;5.244;2023-06-14T00:10:55;101494.0;;;26.29;29.65
61676;BME280;47574;52.090;5.244;2023-06-14T00:14:08;101493.0;;;26.18;29.79
61676;BME280;47574;52.090;5.244;2023-06-14T00:15:45;101497.0;;;26.31;29.63
61676;BME280;47574;52.090;5.244;2023-06-14T00:17:21;101496.0;;;26.16;29.85
61676;BME280;47574;52.090;5.244;2023-06-14T00:18:57;101498.0;;;26.16;29.82
61676;BME280;47574;52.090;5.244;2023-06-14T00:22:09;101499.0;;;26.04;29.97
61676;BME280;47574;52.090;5.244;2023-06-14T00:23:45;101503.0;;;26.11;29.94
61676;BME280;47574;52.090;5.244;2023-06-14T00:25:22;101503.0;;;26.04;30.01
61676;BME280;47574;52.090;5.244;2023-06-14T00:28:35;101501.0;;;26.15;29.9
61676;BME280;47574;52.090;5.244;2023-06-14T00:30:12;101505.0;;;26.11;29.92
61676;BME280;47574;52.090;5.244;2023-06-14T00:31:48;101503.0;;;26.05;30.08
61676;BME280;47574;52.090;5.244;2023-06-14T00:35:00;101501.0;;;26.05;30.05
61676;BME280;47574;52.090;5.244;2023-06-14T00:36:36;101503.0;;;25.82;30.43
61676;BME280;47574;52.090;5.244;2023-06-14T00:38:13;101497.0;;;25.92;30.3
61676;BME280;47574;52.090;5.244;2023-06-14T00:39:49;101505.0;;;25.86;30.43
61676;BME280;47574;52.090;5.244;2023-06-14T00:43:01;101502.0;;;25.75;30.59
61676;BME280;47574;52.090;5.244;2023-06-14T00:44:37;101500.0;;;25.85;30.47
61676;BME280;47574;52.090;5.244;2023-06-14T00:46:13;101502.0;;;25.8;30.54
61676;BME280;47574;52.090;5.244;2023-06-14T00:49:29;101505.0;;;25.81;30.5
61676;BME280;47574;52.090;5.244;2023-06-14T00:51:05;101499.0;;;25.62;30.79
61676;BME280;47574;52.090;5.244;2023-06-14T00:52:42;101499.0;;;25.73;30.71
61676;BME280;47574;52.090;5.244;2023-06-14T00:55:54;101498.0;;;25.6;30.84
61676;BME280;47574;52.090;5.244;2023-06-14T00:57:31;101497.0;;;25.5;30.99
61676;BME280;47574;52.090;5.244;2023-06-14T00:59:07;101499.0;;;25.63;30.75
61676;BME280;47574;52.090;5.244;2023-06-14T01:00:43;101501.0;;;25.6;30.8
61676;BME280;47574;52.090;5.244;2023-06-14T01:03:55;101499.0;;;25.58;30.94
61676;BME280;47574;52.090;5.244;2023-06-14T01:05:31;101499.0;;;25.69;30.71
61676;BME280;47574;52.090;5.244;2023-06-14T01:07:15;101499.0;;;25.52;31.01
61676;BME280;47574;52.090;5.244;2023-06-14T01:10:47;101497.0;;;25.59;30.93
61676;BME280;47574;52.090;5.244;2023-06-14T01:12:44;101494.0;;;25.42;31.12
61676;BME280;47574;52.090;5.244;2023-06-14T01:14:25;101499.0;;;25.36;31.2
61676;BME280;47574;52.090;5.244;2023-06-14T01:16:05;101500.0;;;25.31;31.25
61676;BME280;47574;52.090;5.244;2023-06-14T01:17:44;101499.0;;;25.37;31.13
61676;BME280;47574;52.090;5.244;2023-06-14T01:20:59;101498.0;;;25.39;31.12
61676;BME280;47574;52.090;5.244;2023-06-14T01:22:35;101498.0;;;25.24;31.32
61676;BME280;47574;52.090;5.244;2023-06-14T01:24:11;101496.0;;;25.29;31.26
61676;BME280;47574;52.090;5.244;2023-06-14T01:27:25;101497.0;;;25.16;31.39
61676;BME280;47574;52.090;5.244;2023-06-14T01:29:01;101493.0;;;25.34;31.19
61676;BME280;47574;52.090;5.244;2023-06-14T01:30:39;101490.0;;;25.4;31.09
61676;BME280;47574;52.090;5.244;2023-06-14T01:32:16;101495.0;;;25.26;31.25
61676;BME280;47574;52.090;5.244;2023-06-14T01:35:29;101494.0;;;25.07;31.57
61676;BME280;47574;52.090;5.244;2023-06-14T01:37:06;101499.0;;;25.25;31.33
61676;BME280;47574;52.090;5.244;2023-06-14T01:38:44;101500.0;;;25.03;31.67
61676;BME280;47574;52.090;5.244;2023-06-14T01:41:58;101498.0;;;25.06;31.62
61676;BME280;47574;52.090;5.244;2023-06-14T01:43:35;101503.0;;;25.19;31.45
61676;BME280;47574;52.090;5.244;2023-06-14T01:45:11;101501.0;;;25.09;31.56
61676;BME280;47574;52.090;5.244;2023-06-14T01:46:48;101500.0;;;25.03;31.63
61676;BME280;47574;52.090;5.244;2023-06-14T01:50:02;101499.0;;;25.22;31.41
61676;BME280;47574;52.090;5.244;2023-06-14T01:51:39;101502.0;;;25.14;31.5
61676;BME280;47574;52.090;5.244;2023-06-14T01:53:15;101502.0;;;24.95;31.78
61676;BME280;47574;52.090;5.244;2023-06-14T01:56:28;101499.0;;;25.05;31.59
61676;BME280;47574;52.090;5.244;2023-06-14T01:58:04;101499.0;;;25.08;31.62
61676;BME280;47574;52.090;5.244;2023-06-14T01:59:40;101500.0;;;24.95;31.81
61676;BME280;47574;52.090;5.244;2023-06-14T02:02:53;101500.0;;;24.94;31.81
61676;BME280;47574;52.090;5.244;2023-06-14T02:04:29;101497.0;;;25.02;31.71
61676;BME280;47574;52.090;5.244;2023-06-14T02:06:05;101501.0;;;24.98;31.71
61676;BME280;47574;52.090;5.244;2023-06-14T02:07:41;101499.0;;;24.98;31.75
61676;BME280;47574;52.090;5.244;2023-06-14T02:10:53;101499.0;;;24.94;31.79
61676;BME280;47574;52.090;5.244;2023-06-14T02:12:30;101498.0;;;24.83;31.98
61676;BME280;47574;52.090;5.244;2023-06-14T02:14:06;101498.0;;;24.94;31.81
61676;BME280;47574;52.090;5.244;2023-06-14T02:17:18;101494.0;;;25.19;31.41
61676;BME280;47574;52.090;5.244;2023-06-14T02:18:54;101492.0;;;24.83;31.9
61676;BME280;47574;52.090;5.244;2023-06-14T02:20:30;101494.0;;;24.86;31.91
61676;BME280;47574;52.090;5.244;2023-06-14T02:23:42;101491.0;;;24.98;31.7
61676;BME280;47574;52.090;5.244;2023-06-14T02:25:19;101490.0;;;24.81;32.0
61676;BME280;47574;52.090;5.244;2023-06-14T02:26:55;101492.0;;;24.74;32.07
61676;BME280;47574;52.090;5.244;2023-06-14T02:30:08;101493.0;;;24.92;31.79
61676;BME280;47574;52.090;5.244;2023-06-14T02:31:44;101497.0;;;24.93;31.79
61676;BME280;47574;52.090;5.244;2023-06-14T02:33:21;101498.0;;;24.83;31.88
61676;BME280;47574;52.090;5.244;2023-06-14T02:34:57;101501.0;;;24.76;32.01
61676;BME280;47574;52.090;5.244;2023-06-14T02:38:10;101499.0;;;24.65;32.17
61676;BME280;47574;52.090;5.244;2023-06-14T02:39:46;101499.0;;;24.73;32.05
61676;BME280;47574;52.090;5.244;2023-06-14T02:41:22;101498.0;;;24.59;32.32
61676;BME280;47574;52.090;5.244;2023-06-14T02:44:34;101502.0;;;24.6;32.26
61676;BME280;47574;52.090;5.244;2023-06-14T02:46:10;101503.0;;;24.58;32.33
61676;BME280;47574;52.090;5.244;2023-06-14T02:47:47;101503.0;;;24.59;32.28
61676;BME280;47574;52.090;5.244;2023-06-14T02:50:59;101503.0;;;24.56;32.33
61676;BME280;47574;52.090;5.244;2023-06-14T02:52:35;101505.0;;;24.6;32.25
61676;BME280;47574;52.090;5.244;2023-06-14T02:54:11;101512.0;;;24.48;32.46
61676;BME280;47574;52.090;5.244;2023-06-14T02:55:47;101516.0;;;24.39;32.56
61676;BME280;47574;52.090;5.244;2023-06-14T02:59:00;101512.0;;;24.52;32.37
61676;BME280;47574;52.090;5.244;2023-06-14T03:00:36;101516.0;;;24.36;32.67
61676;BME280;47574;52.090;5.244;2023-06-14T03:02:12;101514.0;;;24.25;32.85
61676;BME280;47574;52.090;5.244;2023-06-14T03:05:24;101518.0;;;24.46;32.53
61676;BME280;47574;52.090;5.244;2023-06-14T03:07:01;101521.0;;;24.46;32.49
61676;BME280;47574;52.090;5.244;2023-06-14T03:08:37;101523.0;;;24.34;32.64
61676;BME280;47574;52.090;5.244;2023-06-14T03:11:49;101525.0;;;24.37;32.65
61676;BME280;47574;52.090;5.244;2023-06-14T03:13:25;101524.0;;;24.21;32.93
61676;BME280;47574;52.090;5.244;2023-06-14T03:15:02;101526.0;;;24.12;33.03
61676;BME280;47574;52.090;5.244;2023-06-14T03:18:15;101530.0;;;24.05;33.22
61676;BME280;47574;52.090;5.244;2023-06-14T03:19:51;101532.0;;;24.17;33.1
61676;BME280;47574;52.090;5.244;2023-06-14T03:21:27;101532.0;;;24.13;33.11
61676;BME280;47574;52.090;5.244;2023-06-14T03:23:03;101535.0;;;24.12;33.18
61676;BME280;47574;52.090;5.244;2023-06-14T03:26:15;101536.0;;;24.21;33.0
61676;BME280;47574;52.090;5.244;2023-06-14T03:27:51;101536.0;;;24.28;32.89
61676;BME280;47574;52.090;5.244;2023-06-14T03:29:27;101537.0;;;24.13;33.1
61676;BME280;47574;52.090;5.244;2023-06-14T03:32:40;101542.0;;;24.09;33.14
61676;BME280;47574;52.090;5.244;2023-06-14T03:34:16;101543.0;;;24.04;33.22
61676;BME280;47574;52.090;5.244;2023-06-14T03:35:52;101543.0;;;23.92;33.42
61676;BME280;47574;52.090;5.244;2023-06-14T03:39:04;101543.0;;;23.87;33.53
61676;BME280;47574;52.090;5.244;2023-06-14T03:40:40;101541.0;;;23.99;33.32
61676;BME280;47574;52.090;5.244;2023-06-14T03:42:17;101544.0;;;23.84;33.5
61676;BME280;47574;52.090;5.244;2023-06-14T03:43:53;101549.0;;;23.91;33.36
61676;BME280;47574;52.090;5.244;2023-06-14T03:47:05;101553.0;;;23.91;33.4
61676;BME280;47574;52.090;5.244;2023-06-14T03:48:41;101553.0;;;23.69;33.78
61676;BME280;47574;52.090;5.244;2023-06-14T03:50:18;101555.0;;;23.93;33.39
61676;BME280;47574;52.090;5.244;2023-06-14T03:53:30;101555.0;;;23.96;33.28
61676;BME280;47574;52.090;5.244;2023-06-14T03:55:06;101556.0;;;23.76;33.64
61676;BME280;47574;52.090;5.244;2023-06-14T03:56:42;101557.0;;;23.91;33.4
61676;BME280;47574;52.090;5.244;2023-06-14T03:59:54;101559.0;;;23.75;33.64
61676;BME280;47574;52.090;5.244;2023-06-14T04:01:30;101561.0;;;23.67;33.81
61676;BME280;47574;52.090;5.244;2023-06-14T04:03:06;101570.0;;;23.87;33.55
61676;BME280;47574;52.090;5.244;2023-06-14T04:06:19;101565.0;;;23.7;33.83
61676;BME280;47574;52.090;5.244;2023-06-14T04:07:55;101564.0;;;23.85;33.62
61676;BME280;47574;52.090;5.244;2023-06-14T04:09:31;101567.0;;;23.88;33.46
61676;BME280;47574;52.090;5.244;2023-06-14T04:11:07;101569.0;;;23.98;33.32
61676;BME280;47574;52.090;5.244;2023-06-14T04:14:19;101572.0;;;23.93;33.43
61676;BME280;47574;52.090;5.244;2023-06-14T04:15:56;101574.0;;;23.97;33.42
61676;BME280;47574;52.090;5.244;2023-06-14T04:17:32;101580.0;;;23.98;33.35
61676;BME280;47574;52.090;5.244;2023-06-14T04:20:44;101572.0;;;23.92;33.49
61676;BME280;47574;52.090;5.244;2023-06-14T04:22:20;101581.0;;;23.91;33.62
61676;BME280;47574;52.090;5.244;2023-06-14T04:23:56;101578.0;;;23.86;33.74
61676;BME280;47574;52.090;5.244;2023-06-14T04:27:09;101577.0;;;23.77;33.83
61676;BME280;47574;52.090;5.244;2023-06-14T04:28:45;101578.0;;;23.74;33.82
61676;BME280;47574;52.090;5.244;2023-06-14T04:30:21;101577.0;;;23.79;33.74
61676;BME280;47574;52.090;5.244;2023-06-14T04:33:34;101581.0;;;23.89;33.68
61676;BME280;47574;52.090;5.244;2023-06-14T04:35:09;101577.0;;;23.74;33.94
61676;BME280;47574;52.090;5.244;2023-06-14T04:36:45;101581.0;;;23.8;33.86
61676;BME280;47574;52.090;5.244;2023-06-14T04:38:22;101582.0;;;23.85;33.82
61676;BME280;47574;52.090;5.244;2023-06-14T04:41:34;101584.0;;;23.8;33.9
61676;BME280;47574;52.090;5.244;2023-06-14T04:44:46;101590.0;;;23.72;34.15
61676;BME280;47574;52.090;5.244;2023-06-14T04:47:59;101588.0;;;23.76;34.12
61676;BME280;47574;52.090;5.244;2023-06-14T04:49:34;101588.0;;;23.85;34.0
61676;BME280;47574;52.090;5.244;2023-06-14T04:51:11;101595.0;;;23.87;33.79
61676;BME280;47574;52.090;5.244;2023-06-14T04:54:23;101588.0;;;23.69;34.17
61676;BME280;47574;52.090;5.244;2023-06-14T04:55:59;101591.0;;;23.76;34.11
61676;BME280;47574;52.090;5.244;2023-06-14T04:57:35;101588.0;;;23.78;34.1
61676;BME280;47574;52.090;5.244;2023-06-14T05:00:47;101592.0;;;23.84;34.05
61676;BME280;47574;52.090;5.244;2023-06-14T05:02:24;101595.0;;;23.95;33.81
61676;BME280;47574;52.090;5.244;2023-06-14T05:04:01;101589.0;;;23.7;34.24
61676;BME280;47574;52.090;5.244;2023-06-14T05:05:37;101591.0;;;23.8;34.17
61676;BME280;47574;52.090;5.244;2023-06-14T05:08:49;101595.0;;;23.98;33.83
61676;BME280;47574;52.090;5.244;2023-06-14T05:10:25;101593.0;;;23.87;34.0
61676;BME280;47574;52.090;5.244;2023-06-14T05:12:02;101598.0;;;23.85;34.04
61676;BME280;47574;52.090;5.244;2023-06-14T05:15:14;101601.0;;;23.96;33.92
61676;BME280;47574;52.090;5.244;2023-06-14T05:16:50;101602.0;;;24.08;33.82
61676;BME280;47574;52.090;5.244;2023-06-14T05:18:26;101600.0;;;23.89;34.24
61676;BME280;47574;52.090;5.244;2023-06-14T05:21:38;101603.0;;;24.11;33.74
61676;BME280;47574;52.090;5.244;2023-06-14T05:23:14;101605.0;;;24.14;33.71
61676;BME280;47574;52.090;5.244;2023-06-14T05:24:50;101605.0;;;24.39;33.35
61676;BME280;47574;52.090;5.244;2023-06-14T05:26:27;101606.0;;;24.17;33.61
61676;BME280;47574;52.090;5.244;2023-06-14T05:29:39;101612.0;;;24.24;33.6
61676;BME280;47574;52.090;5.244;2023-06-14T05:31:15;101609.0;;;24.11;33.92
61676;BME280;47574;52.090;5.244;2023-06-14T05:32:51;101610.0;;;24.32;33.71
61676;BME280;47574;52.090;5.244;2023-06-14T05:36:04;101611.0;;;24.36;33.55
61676;BME280;47574;52.090;5.244;2023-06-14T05:37:40;101610.0;;;24.44;33.39
61676;BME280;47574;52.090;5.244;2023-06-14T05:39:16;101610.0;;;24.62;33.08
61676;BME280;47574;52.090;5.244;2023-06-14T05:42:28;101613.0;;;24.65;33.1
61676;BME280;47574;52.090;5.244;2023-06-14T05:44:04;101614.0;;;24.59;33.35
61676;BME280;47574;52.090;5.244;2023-06-14T05:45:40;101614.0;;;24.61;33.11
61676;BME280;47574;52.090;5.244;2023-06-14T05:48:53;101615.0;;;24.73;32.99
61676;BME280;47574;52.090;5.244;2023-06-14T05:50:31;101613.0;;;24.82;33.0
61676;BME280;47574;52.090;5.244;2023-06-14T05:52:08;101618.0;;;24.82;33.05
61676;BME280;47574;52.090;5.244;2023-06-14T05:53:44;101618.0;;;24.75;32.92
61676;BME280;47574;52.090;5.244;2023-06-14T05:56:56;101620.0;;;24.77;33.04
61676;BME280;47574;52.090;5.244;2023-06-14T05:58:32;101623.0;;;24.71;33.0
61676;BME280;47574;52.090;5.244;2023-06-14T06:00:09;101623.0;;;24.92;32.75
61676;BME280;47574;52.090;5.244;2023-06-14T06:03:22;101625.0;;;24.97;32.71
61676;BME280;47574;52.090;5.244;2023-06-14T06:04:58;101630.0;;;25.11;32.71
61676;BME280;47574;52.090;5.244;2023-06-14T06:06:34;101630.0;;;25.25;32.28
61676;BME280;47574;52.090;5.244;2023-06-14T06:09:46;101632.0;;;24.87;32.99
61676;BME280;47574;52.090;5.244;2023-06-14T06:11:23;101632.0;;;25.06;32.65
61676;BME280;47574;52.090;5.244;2023-06-14T06:12:59;101631.0;;;24.99;32.64
61676;BME280;47574;52.090;5.244;2023-06-14T06:14:35;101634.0;;;25.14;32.24
61676;BME280;47574;52.090;5.244;2023-06-14T06:17:47;101635.0;;;25.23;32.14
61676;BME280;47574;52.090;5.244;2023-06-14T06:19:23;101637.0;;;25.08;32.54
61676;BME280;47574;52.090;5.244;2023-06-14T06:20:59;101633.0;;;25.31;32.33
61676;BME280;47574;52.090;5.244;2023-06-14T06:24:12;101638.0;;;25.06;32.4
61676;BME280;47574;52.090;5.244;2023-06-14T06:25:48;101636.0;;;25.42;31.99
61676;BME280;47574;52.090;5.244;2023-06-14T06:27:24;101638.0;;;25.33;32.28
61676;BME280;47574;52.090;5.244;2023-06-14T06:30:36;101633.0;;;25.43;31.98
61676;BME280;47574;52.090;5.244;2023-06-14T06:32:12;101638.0;;;25.5;32.0
61676;BME280;47574;52.090;5.244;2023-06-14T06:33:49;101632.0;;;25.62;31.64
61676;BME280;47574;52.090;5.244;2023-06-14T06:37:02;101639.0;;;25.69;31.49
61676;BME280;47574;52.090;5.244;2023-06-14T06:38:38;101635.0;;;25.94;31.23
61676;BME280;47574;52.090;5.244;2023-06-14T06:40:14;101640.0;;;25.96;31.17
61676;BME280;47574;52.090;5.244;2023-06-14T06:41:50;101640.0;;;26.19;30.82
61676;BME280;47574;52.090;5.244;2023-06-14T06:45:03;101642.0;;;26.13;31.04
61676;BME280;47574;52.090;5.244;2023-06-14T06:46:40;101644.0;;;26.02;31.01
61676;BME280;47574;52.090;5.244;2023-06-14T06:48:16;101652.0;;;26.1;30.82
61676;BME280;47574;52.090;5.244;2023-06-14T06:51:28;101653.0;;;26.07;30.63
61676;BME280;47574;52.090;5.244;2023-06-14T06:53:04;101655.0;;;26.17;30.53
61676;BME280;47574;52.090;5.244;2023-06-14T06:54:40;101663.0;;;26.01;30.89
61676;BME280;47574;52.090;5.244;2023-06-14T06:57:52;101664.0;;;25.87;31.09
61676;BME280;47574;52.090;5.244;2023-06-14T06:59:29;101662.0;;;26.13;30.79
61676;BME280;47574;52.090;5.244;2023-06-14T07:01:05;101659.0;;;26.17;30.8
61676;BME280;47574;52.090;5.244;2023-06-14T07:02:41;101661.0;;;26.23;30.71
61676;BME280;47574;52.090;5.244;2023-06-14T07:05:53;101666.0;;;26.44;30.51
61676;BME280;47574;52.090;5.244;2023-06-14T07:07:29;101662.0;;;26.36;30.4
61676;BME280;47574;52.090;5.244;2023-06-14T07:09:05;101663.0;;;26.45;30.57
61676;BME280;47574;52.090;5.244;2023-06-14T07:12:18;101665.0;;;26.69;30.11
61676;BME280;47574;52.090;5.244;2023-06-14T07:13:54;101670.0;;;26.76;30.2
61676;BME280;47574;52.090;5.244;2023-06-14T07:15:30;101669.0;;;26.77;29.81
61676;BME280;47574;52.090;5.244;2023-06-14T07:18:42;101670.0;;;26.71;29.77
61676;BME280;47574;52.090;5.244;2023-06-14T07:20:18;101671.0;;;26.98;29.57
61676;BME280;47574;52.090;5.244;2023-06-14T07:21:55;101669.0;;;26.94;29.36
61676;BME280;47574;52.090;5.244;2023-06-14T07:25:08;101675.0;;;26.87;29.43
61676;BME280;47574;52.090;5.244;2023-06-14T07:26:44;101675.0;;;27.01;29.33
61676;BME280;47574;52.090;5.244;2023-06-14T07:28:20;101678.0;;;27.12;29.14
61676;BME280;47574;52.090;5.244;2023-06-14T07:29:56;101681.0;;;27.2;29.35
61676;BME280;47574;52.090;5.244;2023-06-14T07:33:08;101678.0;;;27.48;28.44
61676;BME280;47574;52.090;5.244;2023-06-14T07:34:45;101678.0;;;27.46;28.78
61676;BME280;47574;52.090;5.244;2023-06-14T07:36:21;101678.0;;;27.51;28.15
61676;BME280;47574;52.090;5.244;2023-06-14T07:39:34;101680.0;;;27.41;27.93
61676;BME280;47574;52.090;5.244;2023-06-14T07:41:10;101683.0;;;27.52;27.95
61676;BME280;47574;52.090;5.244;2023-06-14T07:42:46;101686.0;;;27.63;27.85
61676;BME280;47574;52.090;5.244;2023-06-14T07:45:59;101686.0;;;27.64;27.76
61676;BME280;47574;52.090;5.244;2023-06-14T07:47:35;101690.0;;;27.76;27.58
61676;BME280;47574;52.090;5.244;2023-06-14T07:49:11;101693.0;;;27.96;27.51
61676;BME280;47574;52.090;5.244;2023-06-14T07:50:47;101697.0;;;27.78;27.63
61676;BME280;47574;52.090;5.244;2023-06-14T07:54:00;101695.0;;;27.87;27.41
61676;BME280;47574;52.090;5.244;2023-06-14T07:55:35;101695.0;;;28.03;27.33
61676;BME280;47574;52.090;5.244;2023-06-14T07:57:11;101694.0;;;28.05;27.38
61676;BME280;47574;52.090;5.244;2023-06-14T08:00:24;101697.0;;;27.77;27.43
61676;BME280;47574;52.090;5.244;2023-06-14T08:02:00;101702.0;;;27.82;27.4
61676;BME280;47574;52.090;5.244;2023-06-14T08:03:36;101701.0;;;28.07;26.89
61676;BME280;47574;52.090;5.244;2023-06-14T08:06:49;101707.0;;;28.08;27.24
61676;BME280;47574;52.090;5.244;2023-06-14T08:08:25;101706.0;;;28.36;27.03
61676;BME280;47574;52.090;5.244;2023-06-14T08:10:02;101702.0;;;28.35;26.95
61676;BME280;47574;52.090;5.244;2023-06-14T08:13:14;101703.0;;;28.15;26.9
61676;BME280;47574;52.090;5.244;2023-06-14T08:14:50;101702.0;;;28.2;26.74
61676;BME280;47574;52.090;5.244;2023-06-14T08:16:26;101706.0;;;28.25;26.59
61676;BME280;47574;52.090;5.244;2023-06-14T08:18:02;101707.0;;;28.47;26.02
61676;BME280;47574;52.090;5.244;2023-06-14T08:21:14;101709.0;;;28.48;26.0
61676;BME280;47574;52.090;5.244;2023-06-14T08:22:50;101710.0;;;28.29;26.19
61676;BME280;47574;52.090;5.244;2023-06-14T08:24:27;101711.0;;;28.45;25.9
61676;BME280;47574;52.090;5.244;2023-06-14T08:27:40;101710.0;;;28.54;26.02
61676;BME280;47574;52.090;5.244;2023-06-14T08:29:16;101713.0;;;28.68;25.54
61676;BME280;47574;52.090;5.244;2023-06-14T08:30:52;101711.0;;;28.68;25.63
61676;BME280;47574;52.090;5.244;2023-06-14T08:34:04;101709.0;;;28.96;24.88
61676;BME280;47574;52.090;5.244;2023-06-14T08:35:40;101710.0;;;28.88;24.9
61676;BME280;47574;52.090;5.244;2023-06-14T08:37:17;101706.0;;;28.98;24.91
61676;BME280;47574;52.090;5.244;2023-06-14T08:38:53;101705.0;;;29.18;24.55
61676;BME280;47574;52.090;5.244;2023-06-14T08:42:09;101708.0;;;29.04;24.88
61676;BME280;47574;52.090;5.244;2023-06-14T08:43:45;101703.0;;;29.22;24.56
61676;BME280;47574;52.090;5.244;2023-06-14T08:45:24;101702.0;;;29.27;24.52
61676;BME280;47574;52.090;5.244;2023-06-14T08:48:39;101703.0;;;29.26;24.53
61676;BME280;47574;52.090;5.244;2023-06-14T08:50:15;101693.0;;;29.17;24.43
61676;BME280;47574;52.090;5.244;2023-06-14T08:51:56;101698.0;;;29.21;25.07
61676;BME280;47574;52.090;5.244;2023-06-14T08:53:35;101705.0;;;29.28;24.03
61676;BME280;47574;52.090;5.244;2023-06-14T08:56:50;101697.0;;;29.27;23.21
61676;BME280;47574;52.090;5.244;2023-06-14T08:58:27;101700.0;;;29.26;23.63
61676;BME280;47574;52.090;5.244;2023-06-14T09:00:05;101696.0;;;29.41;23.27
61676;BME280;47574;52.090;5.244;2023-06-14T09:03:18;101697.0;;;29.39;23.33
61676;BME280;47574;52.090;5.244;2023-06-14T09:04:54;101708.0;;;29.65;23.44
61676;BME280;47574;52.090;5.244;2023-06-14T09:06:30;101706.0;;;29.58;23.74
61676;BME280;47574;52.090;5.244;2023-06-14T09:09:42;101699.0;;;29.41;23.06
61676;BME280;47574;52.090;5.244;2023-06-14T09:11:19;101703.0;;;29.27;23.47
61676;BME280;47574;52.090;5.244;2023-06-14T09:12:55;101708.0;;;29.07;23.94
61676;BME280;47574;52.090;5.244;2023-06-14T09:14:33;101713.0;;;29.28;23.14
61676;BME280;47574;52.090;5.244;2023-06-14T09:17:45;101708.0;;;29.21;23.21
61676;BME280;47574;52.090;5.244;2023-06-14T09:19:23;101717.0;;;29.45;23.25
61676;BME280;47574;52.090;5.244;2023-06-14T09:20:59;101713.0;;;29.55;23.21
61676;BME280;47574;52.090;5.244;2023-06-14T09:24:14;101709.0;;;29.56;23.38
61676;BME280;47574;52.090;5.244;2023-06-14T09:25:50;101717.0;;;29.59;23.17
61676;BME280;47574;52.090;5.244;2023-06-14T09:27:26;101706.0;;;29.48;22.88
61676;BME280;47574;52.090;5.244;2023-06-14T09:30:41;101710.0;;;29.31;22.79
61676;BME280;47574;52.090;5.244;2023-06-14T09:32:17;101719.0;;;29.32;22.68
61676;BME280;47574;52.090;5.244;2023-06-14T09:33:54;101719.0;;;29.42;22.58
61676;BME280;47574;52.090;5.244;2023-06-14T09:35:31;101715.0;;;29.43;22.82
61676;BME280;47574;52.090;5.244;2023-06-14T09:38:51;101718.0;;;29.53;22.71
61676;BME280;47574;52.090;5.244;2023-06-14T09:40:28;101715.0;;;29.65;22.82
61676;BME280;47574;52.090;5.244;2023-06-14T09:42:16;101712.0;;;29.41;22.71
61676;BME280;47574;52.090;5.244;2023-06-14T09:43:53;101715.0;;;29.57;22.46
61676;BME280;47574;52.090;5.244;2023-06-14T09:47:06;101709.0;;;29.57;21.74
61676;BME280;47574;52.090;5.244;2023-06-14T09:48:42;101714.0;;;29.16;21.83
61676;BME280;47574;52.090;5.244;2023-06-14T09:50:18;101712.0;;;28.93;22.45
61676;BME280;47574;52.090;5.244;2023-06-14T09:53:34;101723.0;;;29.58;22.2
61676;BME280;47574;52.090;5.244;2023-06-14T09:55:13;101714.0;;;29.29;21.85
61676;BME280;47574;52.090;5.244;2023-06-14T09:56:50;101714.0;;;29.44;21.98
61676;BME280;47574;52.090;5.244;2023-06-14T09:58:28;101715.0;;;29.52;22.3
61676;BME280;47574;52.090;5.244;2023-06-14T10:01:44;101723.0;;;29.82;22.17
61676;BME280;47574;52.090;5.244;2023-06-14T10:03:25;101707.0;;;29.83;22.24
61676;BME280;47574;52.090;5.244;2023-06-14T10:05:05;101706.0;;;29.91;22.29
61676;BME280;47574;52.090;5.244;2023-06-14T10:08:25;101709.0;;;29.82;21.93
61676;BME280;47574;52.090;5.244;2023-06-14T10:10:03;101713.0;;;29.81;22.36
61676;BME280;47574;52.090;5.244;2023-06-14T10:11:40;101706.0;;;29.8;21.98
61676;BME280;47574;52.090;5.244;2023-06-14T10:13:16;101716.0;;;29.59;21.64
61676;BME280;47574;52.090;5.244;2023-06-14T10:16:34;101711.0;;;29.83;21.24
61676;BME280;47574;52.090;5.244;2023-06-14T10:18:19;101709.0;;;29.91;21.36
61676;BME280;47574;52.090;5.244;2023-06-14T10:20:10;101714.0;;;29.57;22.08
61676;BME280;47574;52.090;5.244;2023-06-14T10:21:57;101711.0;;;29.5;22.39
61676;BME280;47574;52.090;5.244;2023-06-14T10:23:40;101711.0;;;29.52;22.17
61676;BME280;47574;52.090;5.244;2023-06-14T10:27:13;101706.0;;;29.73;22.41
61676;BME280;47574;52.090;5.244;2023-06-14T10:28:59;101711.0;;;29.61;22.23
61676;BME280;47574;52.090;5.244;2023-06-14T10:30:35;101710.0;;;29.62;22.36
61676;BME280;47574;52.090;5.244;2023-06-14T10:32:11;101707.0;;;30.01;21.92
61676;BME280;47574;52.090;5.244;2023-06-14T10:35:26;101708.0;;;30.21;21.75
61676;BME280;47574;52.090;5.244;2023-06-14T10:37:03;101706.0;;;29.82;21.81
61676;BME280;47574;52.090;5.244;2023-06-14T10:38:42;101705.0;;;29.97;21.75
61676;BME280;47574;52.090;5.244;2023-06-14T10:40:30;101699.0;;;30.19;20.54
61676;BME280;47574;52.090;5.244;2023-06-14T10:43:43;101705.0;;;30.07;20.93
61676;BME280;47574;52.090;5.244;2023-06-14T10:45:19;101705.0;;;29.73;21.24
61676;BME280;47574;52.090;5.244;2023-06-14T10:46:58;101705.0;;;29.96;21.16
61676;BME280;47574;52.090;5.244;2023-06-14T10:51:52;101699.0;;;29.88;21.2
61676;BME280;47574;52.090;5.244;2023-06-14T10:53:40;101703.0;;;29.79;20.96
61676;BME280;47574;52.090;5.244;2023-06-14T10:55:16;101703.0;;;29.96;21.28
61676;BME280;47574;52.090;5.244;2023-06-14T10:58:29;101703.0;;;29.93;21.39
61676;BME280;47574;52.090;5.244;2023-06-14T11:00:07;101705.0;;;30.11;21.61
61676;BME280;47574;52.090;5.244;2023-06-14T11:01:57;101705.0;;;30.1;22.02
61676;BME280;47574;52.090;5.244;2023-06-14T11:03:50;101705.0;;;29.97;21.98
61676;BME280;47574;52.090;5.244;2023-06-14T11:05:27;101701.0;;;30.03;22.01
61676;BME280;47574;52.090;5.244;2023-06-14T11:09:35;101694.0;;;30.1;22.2
61676;BME280;47574;52.090;5.244;2023-06-14T11:12:09;101692.0;;;30.24;22.07